Iberville, Canada
Current Conditions -  °F | °C
As of 3:00 PM on Wednesday 17 Dec 2014 (Local Time) from CYHU Reporting Station
Light Rain Light Rain  
Wind Chill: 26°   Ceiling: 400
Heat Index: 32°   Visibility: 3mi
Dew Point: 30°   Wind: 7mph
Humidity: 93%   Direction: 30°NNE
Pressure: 29.76"   Gusts: NA
Location:  45.32°N, 73.23°W
Report Text: CYHU 172000Z AUTO 03006KT 3SM -RA BR OVC004 00/M01 A2976 RMK SLP080
Loading
Personal Weather Stations






























Interactive Weather Map New forecast layout! Learn more

10-Day Weather Forecast

Advertisements
Track Severe Weather on mobile